createdAt,value
2022-11-06T00:01:09.872Z,11.73
2022-11-06T00:03:37.126Z,7.87
2022-11-06T00:06:30.801Z,8.63
2022-11-06T00:08:59.910Z,9.73
2022-11-06T00:11:26.665Z,11.63
2022-11-06T00:13:53.156Z,9.53
2022-11-06T00:16:20.538Z,6.10
2022-11-06T00:18:47.678Z,9.70
2022-11-06T00:21:28.564Z,11.70
2022-11-06T00:23:57.017Z,12.40
2022-11-06T00:26:25.862Z,8.67
2022-11-06T00:28:53.159Z,12.43
2022-11-06T00:31:22.316Z,10.97
2022-11-06T00:33:49.008Z,10.50
2022-11-06T00:36:18.275Z,9.67
2022-11-06T00:38:45.651Z,7.63
2022-11-06T00:41:15.187Z,7.80
2022-11-06T00:43:42.231Z,9.40
2022-11-06T00:46:10.796Z,6.90
2022-11-06T00:48:38.011Z,9.07
2022-11-06T00:51:10.134Z,5.97
2022-11-06T00:53:37.379Z,7.37
2022-11-06T00:56:09.810Z,7.87
2022-11-06T00:58:36.685Z,8.63
2022-11-06T01:01:13.984Z,7.40
2022-11-06T01:03:41.829Z,7.83
2022-11-06T01:06:17.175Z,7.03
2022-11-06T01:08:44.854Z,8.93
2022-11-06T01:11:46.564Z,9.80
2022-11-06T01:14:18.120Z,11.00
2022-11-06T01:16:45.323Z,8.13
2022-11-06T01:19:14.651Z,8.87
2022-11-06T01:21:43.706Z,6.47
2022-11-06T01:24:13.224Z,7.97
2022-11-06T01:26:53.307Z,9.23
2022-11-06T01:29:26.533Z,8.73
2022-11-06T01:31:52.933Z,9.37
2022-11-06T01:34:19.351Z,9.67
2022-11-06T01:36:46.745Z,8.73
2022-11-06T01:39:15.431Z,8.10
2022-11-06T01:41:50.866Z,9.90
2022-11-06T01:44:35.311Z,6.37
2022-11-06T01:47:04.744Z,8.70
2022-11-06T01:49:37.505Z,8.50
2022-11-06T01:52:10.130Z,7.40
2022-11-06T01:54:39.899Z,9.47
2022-11-06T01:57:07.409Z,6.83
2022-11-06T01:59:37.150Z,7.63
2022-11-06T02:02:04.351Z,7.90
2022-11-06T02:04:40.583Z,7.87
2022-11-06T02:07:08.058Z,12.27
2022-11-06T02:09:35.028Z,8.80
2022-11-06T02:12:22.428Z,4.10
2022-11-06T02:14:58.470Z,7.97
2022-11-06T02:17:41.553Z,7.00
2022-11-06T02:20:17.364Z,5.67
2022-11-06T02:23:05.797Z,9.00
2022-11-06T02:25:46.229Z,6.57
2022-11-06T02:28:27.937Z,8.27
2022-11-06T02:30:58.323Z,7.40
2022-11-06T02:33:36.530Z,7.17
2022-11-06T02:36:13.297Z,6.13
2022-11-06T02:38:54.917Z,6.20
2022-11-06T02:41:28.439Z,7.63
2022-11-06T02:43:56.685Z,9.60
2022-11-06T02:46:37.360Z,10.57
2022-11-06T02:49:08.758Z,9.37
2022-11-06T02:51:40.140Z,7.10
2022-11-06T02:54:08.311Z,12.70
2022-11-06T02:56:39.613Z,17.00
2022-11-06T02:59:11.894Z,9.80
2022-11-06T03:01:52.462Z,9.63
2022-11-06T03:04:26.143Z,6.97
2022-11-06T03:07:00.924Z,8.73
2022-11-06T03:09:31.644Z,5.90
2022-11-06T03:12:05.600Z,9.73
2022-11-06T03:14:46.353Z,10.03
2022-11-06T03:17:22.877Z,9.80
2022-11-06T03:20:24.192Z,7.77
2022-11-06T03:22:57.531Z,7.93
2022-11-06T03:25:35.051Z,10.80
2022-11-06T03:28:10.569Z,10.90
2022-11-06T03:30:42.998Z,11.30
2022-11-06T03:33:33.545Z,11.13
2022-11-06T03:36:18.406Z,10.40
2022-11-06T03:38:52.869Z,12.10
2022-11-06T03:41:42.233Z,10.23
2022-11-06T03:44:12.786Z,12.10
2022-11-06T03:46:46.406Z,11.43
2022-11-06T03:49:21.904Z,14.27
2022-11-06T03:51:57.308Z,11.17
2022-11-06T03:54:27.713Z,9.73
2022-11-06T03:57:11.372Z,12.57
2022-11-06T03:59:48.584Z,13.97
2022-11-06T04:02:17.928Z,13.53
2022-11-06T04:04:52.542Z,13.20
2022-11-06T04:07:22.437Z,14.30
2022-11-06T04:10:12.470Z,10.17
2022-11-06T04:13:00.054Z,11.13
2022-11-06T04:15:31.294Z,12.97
2022-11-06T04:17:57.701Z,15.30
2022-11-06T04:20:43.262Z,14.33
2022-11-06T04:23:20.057Z,14.17
2022-11-06T04:26:18.653Z,13.03
2022-11-06T04:29:11.070Z,16.17
2022-11-06T04:31:48.876Z,13.77
2022-11-06T04:34:42.801Z,16.70
2022-11-06T04:37:30.372Z,19.37
2022-11-06T04:40:06.537Z,18.87
2022-11-06T04:42:42.507Z,16.93
2022-11-06T04:45:21.264Z,13.10
2022-11-06T04:47:49.519Z,19.00
2022-11-06T04:50:20.561Z,15.03
2022-11-06T04:52:48.058Z,14.20
2022-11-06T04:55:14.428Z,14.03
2022-11-06T04:57:40.874Z,15.00
2022-11-06T05:00:08.108Z,16.53
2022-11-06T05:02:34.760Z,17.03
2022-11-06T05:05:01.147Z,15.93
2022-11-06T05:07:27.527Z,16.60
2022-11-06T05:09:53.969Z,12.53
2022-11-06T05:12:20.529Z,14.20
2022-11-06T05:14:46.949Z,10.40
2022-11-06T05:17:13.410Z,12.93
2022-11-06T05:19:39.855Z,12.67
2022-11-06T05:22:24.945Z,12.27
2022-11-06T05:24:51.382Z,12.50
2022-11-06T05:27:17.879Z,12.13
2022-11-06T05:29:44.553Z,15.30
2022-11-06T05:32:10.969Z,16.10
2022-11-06T05:34:37.412Z,10.03
2022-11-06T05:37:03.916Z,9.27
2022-11-06T05:39:30.356Z,13.67
2022-11-06T05:41:56.749Z,12.83
2022-11-06T05:44:23.210Z,9.87
2022-11-06T05:46:50.342Z,13.77
2022-11-06T05:49:18.247Z,10.03
2022-11-06T05:51:45.044Z,14.10
2022-11-06T05:54:11.422Z,9.50
2022-11-06T05:56:37.877Z,15.37
2022-11-06T05:59:04.489Z,11.50
2022-11-06T06:01:31.017Z,8.37
2022-11-06T06:03:57.612Z,13.80
2022-11-06T06:06:24.103Z,13.50
2022-11-06T06:08:50.486Z,11.17
2022-11-06T06:11:16.945Z,11.77
2022-11-06T06:13:43.450Z,10.77
2022-11-06T06:16:09.936Z,10.53
2022-11-06T06:18:36.387Z,12.17
2022-11-06T06:21:02.799Z,9.40
2022-11-06T06:23:29.209Z,13.67
2022-11-06T06:25:56.810Z,10.10
2022-11-06T06:28:23.228Z,8.70
2022-11-06T06:30:49.635Z,8.27
2022-11-06T06:33:16.012Z,10.47
2022-11-06T06:35:42.372Z,9.97
2022-11-06T06:38:08.838Z,11.07
2022-11-06T06:40:35.270Z,8.37
2022-11-06T06:43:01.635Z,7.33
2022-11-06T06:45:28.071Z,11.10
2022-11-06T06:47:54.544Z,10.20
2022-11-06T06:50:21.061Z,7.67
2022-11-06T06:52:47.634Z,11.57
2022-11-06T06:55:14.234Z,10.63
2022-11-06T06:57:40.694Z,11.73
2022-11-06T07:00:07.941Z,8.53
2022-11-06T07:02:34.366Z,9.13
2022-11-06T07:05:00.778Z,6.90
2022-11-06T07:07:27.201Z,6.27
2022-11-06T07:09:53.620Z,12.57
2022-11-06T07:12:19.994Z,6.53
2022-11-06T07:14:46.370Z,6.53
2022-11-06T07:17:12.908Z,10.23
2022-11-06T07:19:39.325Z,7.93
2022-11-06T07:22:05.775Z,8.13
2022-11-06T07:24:32.190Z,8.27
2022-11-06T07:26:58.632Z,10.83
2022-11-06T07:29:25.028Z,8.03
2022-11-06T07:31:51.416Z,4.40
2022-11-06T07:34:17.830Z,5.80
2022-11-06T07:36:44.271Z,6.77
2022-11-06T07:39:10.797Z,13.50
2022-11-06T07:41:37.860Z,7.00
2022-11-06T07:44:05.155Z,7.87
2022-11-06T07:46:31.779Z,6.40
2022-11-06T07:48:58.148Z,8.17
2022-11-06T07:51:24.568Z,7.27
2022-11-06T07:53:50.932Z,5.80
2022-11-06T07:56:17.347Z,9.37
2022-11-06T07:58:43.729Z,12.33
2022-11-06T08:01:18.486Z,4.47
2022-11-06T08:03:45.242Z,5.73
2022-11-06T08:06:12.044Z,6.43
2022-11-06T08:08:38.528Z,10.43
2022-11-06T08:11:07.212Z,6.43
2022-11-06T08:13:35.078Z,6.60
2022-11-06T08:16:10.959Z,6.60
2022-11-06T08:18:37.936Z,6.70
2022-11-06T08:21:05.240Z,5.83
2022-11-06T08:23:31.972Z,3.60
2022-11-06T08:26:00.819Z,6.90
2022-11-06T08:28:28.041Z,3.33
2022-11-06T08:30:55.362Z,5.03
2022-11-06T08:33:22.993Z,5.53
2022-11-06T08:35:49.426Z,5.87
2022-11-06T08:38:16.901Z,10.37
2022-11-06T08:40:43.381Z,4.93
2022-11-06T08:43:11.075Z,6.63
2022-11-06T08:45:40.518Z,6.03
2022-11-06T08:48:08.774Z,5.60
2022-11-06T08:50:37.174Z,3.77
2022-11-06T08:53:04.471Z,5.90
2022-11-06T08:55:31.452Z,6.23
2022-11-06T08:57:57.861Z,6.50
2022-11-06T09:00:24.799Z,5.70
2022-11-06T09:02:51.357Z,4.87
2022-11-06T09:05:17.712Z,6.10
2022-11-06T09:07:44.118Z,8.33
2022-11-06T09:10:10.511Z,5.00
2022-11-06T09:12:36.915Z,5.87
2022-11-06T09:15:03.483Z,3.47
2022-11-06T09:17:29.858Z,3.90
2022-11-06T09:19:56.270Z,5.13
2022-11-06T09:22:22.693Z,4.87
2022-11-06T09:25:03.140Z,4.30
2022-11-06T09:27:30.386Z,3.03
2022-11-06T09:29:56.960Z,3.47
2022-11-06T09:32:24.017Z,4.03
2022-11-06T09:34:50.781Z,5.50
2022-11-06T09:37:17.174Z,5.77
2022-11-06T09:39:43.717Z,5.37
2022-11-06T09:42:31.488Z,2.50
2022-11-06T09:45:08.784Z,13.13
2022-11-06T09:47:41.581Z,5.20
2022-11-06T09:50:17.128Z,11.17
2022-11-06T09:52:54.520Z,5.53
2022-11-06T09:55:30.365Z,8.97
2022-11-06T09:58:01.715Z,2.33
2022-11-06T10:00:28.247Z,11.80
2022-11-06T10:03:00.976Z,9.93
2022-11-06T10:05:31.183Z,6.93
2022-11-06T10:08:00.376Z,7.23
2022-11-06T10:10:51.681Z,7.00
2022-11-06T10:13:22.734Z,6.63
2022-11-06T10:16:14.702Z,4.23
2022-11-06T10:18:58.696Z,8.57
2022-11-06T10:21:41.810Z,5.40
2022-11-06T10:24:20.775Z,3.17
2022-11-06T10:26:57.505Z,10.40
2022-11-06T10:29:38.921Z,9.03
2022-11-06T10:32:32.905Z,5.20
2022-11-06T10:35:37.365Z,4.87
2022-11-06T10:38:10.045Z,7.13
2022-11-06T10:40:36.750Z,8.13
2022-11-06T10:43:34.650Z,4.40
2022-11-06T10:46:27.967Z,7.23
2022-11-06T10:49:00.753Z,1.97
2022-11-06T10:51:43.448Z,3.20
2022-11-06T10:55:02.329Z,4.13
2022-11-06T10:57:40.454Z,4.17
2022-11-06T11:00:11.790Z,2.40
2022-11-06T11:02:44.580Z,6.93
2022-11-06T11:05:17.148Z,8.07
2022-11-06T11:07:45.957Z,5.30
2022-11-06T11:10:28.035Z,7.13
2022-11-06T11:12:56.949Z,5.50
2022-11-06T11:15:25.963Z,5.53
2022-11-06T11:18:07.428Z,4.37
2022-11-06T11:20:35.674Z,3.93
2022-11-06T11:23:06.388Z,9.70
2022-11-06T11:25:33.289Z,5.17
2022-11-06T11:28:04.630Z,5.63
2022-11-06T11:30:31.651Z,7.47
2022-11-06T11:32:58.565Z,4.00
2022-11-06T11:35:30.665Z,5.83
2022-11-06T11:38:07.340Z,4.63
2022-11-06T11:40:38.618Z,4.93
2022-11-06T11:43:26.325Z,3.53
2022-11-06T11:46:17.179Z,6.33
2022-11-06T11:48:46.490Z,5.33
2022-11-06T11:51:33.968Z,7.50
2022-11-06T11:54:05.328Z,3.63
2022-11-06T11:57:02.337Z,6.43
2022-11-06T11:59:32.094Z,5.43
2022-11-06T12:02:16.299Z,4.07
2022-11-06T12:04:46.762Z,3.47
2022-11-06T12:07:29.216Z,3.40
2022-11-06T12:09:56.840Z,1.37
2022-11-06T12:12:31.323Z,8.37
2022-11-06T12:15:03.446Z,4.33
2022-11-06T12:17:31.004Z,4.40
2022-11-06T12:20:00.151Z,5.60
2022-11-06T12:22:35.685Z,6.30
2022-11-06T12:25:16.067Z,3.67
2022-11-06T12:27:51.167Z,4.97
2022-11-06T12:30:18.950Z,11.97
2022-11-06T12:33:10.637Z,4.17
2022-11-06T12:35:42.539Z,7.43
2022-11-06T12:38:35.813Z,5.30
2022-11-06T12:41:15.266Z,6.43
2022-11-06T12:43:44.594Z,3.50
2022-11-06T12:46:25.016Z,4.63
2022-11-06T12:49:33.089Z,7.10
2022-11-06T12:52:35.259Z,13.13
2022-11-06T12:55:40.723Z,4.00
2022-11-06T12:58:29.015Z,5.03
2022-11-06T13:01:19.333Z,7.67
2022-11-06T13:04:07.140Z,9.77
2022-11-06T13:07:00.053Z,9.90
2022-11-06T13:09:32.186Z,8.13
2022-11-06T13:12:31.038Z,4.40
2022-11-06T13:15:19.810Z,7.17
2022-11-06T13:18:26.552Z,8.13
2022-11-06T13:21:17.845Z,4.83
2022-11-06T13:23:50.237Z,4.27
2022-11-06T13:26:27.412Z,4.77
2022-11-06T13:28:59.063Z,4.80
2022-11-06T13:31:35.872Z,6.03
2022-11-06T13:34:03.855Z,3.40
2022-11-06T13:36:35.405Z,4.30
2022-11-06T13:39:18.128Z,6.53
2022-11-06T13:41:44.599Z,6.90
2022-11-06T13:44:18.258Z,6.70
2022-11-06T13:47:03.240Z,4.80
2022-11-06T13:49:47.752Z,5.63
2022-11-06T13:52:29.005Z,4.50
2022-11-06T13:55:07.562Z,4.50
2022-11-06T13:57:52.782Z,6.80
2022-11-06T14:00:51.843Z,5.93
2022-11-06T14:03:52.304Z,3.90
2022-11-06T14:06:21.818Z,3.50
2022-11-06T14:08:52.717Z,5.97
2022-11-06T14:11:36.698Z,3.40
2022-11-06T14:14:24.268Z,6.37
2022-11-06T14:17:13.780Z,4.07
2022-11-06T14:20:01.481Z,4.27
2022-11-06T14:22:36.273Z,5.87
2022-11-06T14:25:27.343Z,5.03
2022-11-06T14:27:53.713Z,3.17
2022-11-06T14:30:50.127Z,2.03
2022-11-06T14:33:41.937Z,3.23
2022-11-06T14:36:23.736Z,2.10
2022-11-06T14:38:51.373Z,3.90
2022-11-06T14:41:53.905Z,3.10
2022-11-06T14:44:30.169Z,2.47
2022-11-06T14:47:03.085Z,2.50
2022-11-06T14:49:42.075Z,1.10
2022-11-06T14:52:12.792Z,3.30
2022-11-06T14:54:42.813Z,1.97
2022-11-06T14:57:15.881Z,3.47
2022-11-06T14:59:43.016Z,2.33
2022-11-06T15:02:19.291Z,2.60
2022-11-06T15:05:09.074Z,3.97
2022-11-06T15:08:10.650Z,5.23
2022-11-06T15:10:43.007Z,2.63
2022-11-06T15:13:23.994Z,3.53
2022-11-06T15:15:55.545Z,2.40
2022-11-06T15:18:24.376Z,3.13
2022-11-06T15:20:55.189Z,2.50
2022-11-06T15:23:26.928Z,2.40
2022-11-06T15:26:32.309Z,5.43
2022-11-06T15:29:04.724Z,2.43
2022-11-06T15:31:32.800Z,2.30
2022-11-06T15:34:05.653Z,3.33
2022-11-06T15:36:40.498Z,3.47
2022-11-06T15:39:37.892Z,2.23
2022-11-06T15:42:08.836Z,2.83
2022-11-06T15:44:40.157Z,1.60
2022-11-06T15:47:22.895Z,2.97
2022-11-06T15:50:15.493Z,4.43
2022-11-06T15:52:42.801Z,2.30
2022-11-06T15:55:32.080Z,3.00
2022-11-06T15:58:30.420Z,2.17
2022-11-06T16:00:58.893Z,6.60
2022-11-06T16:03:28.721Z,1.90
2022-11-06T16:05:58.642Z,2.47
2022-11-06T16:08:28.132Z,2.53
2022-11-06T16:10:55.601Z,3.03
2022-11-06T16:13:24.895Z,4.93
2022-11-06T16:16:00.616Z,2.17
2022-11-06T16:18:32.435Z,4.33
2022-11-06T16:21:09.379Z,2.40
2022-11-06T16:23:44.927Z,3.50
2022-11-06T16:26:15.671Z,3.83
2022-11-06T16:28:44.229Z,4.97
2022-11-06T16:31:15.512Z,5.00
2022-11-06T16:33:54.114Z,5.10
2022-11-06T16:36:20.615Z,6.37
2022-11-06T16:38:47.360Z,3.27
2022-11-06T16:41:39.545Z,4.13
2022-11-06T16:44:38.497Z,2.10
2022-11-06T16:47:04.818Z,2.07
2022-11-06T16:49:33.609Z,4.43
2022-11-06T16:52:00.282Z,3.00
2022-11-06T16:54:31.403Z,3.57
2022-11-06T16:57:09.774Z,3.37
2022-11-06T16:59:37.289Z,5.90
2022-11-06T17:02:04.489Z,3.67
2022-11-06T17:04:31.042Z,2.87
2022-11-06T17:06:58.561Z,3.60
2022-11-06T17:09:33.823Z,2.33
2022-11-06T17:12:01.625Z,3.23
2022-11-06T17:14:28.306Z,3.90
2022-11-06T17:17:00.541Z,2.53
2022-11-06T17:19:28.553Z,2.70
2022-11-06T17:21:55.564Z,3.27
2022-11-06T17:24:38.099Z,2.23
2022-11-06T17:27:05.275Z,2.90
2022-11-06T17:29:33.512Z,3.83
2022-11-06T17:31:59.964Z,4.97
2022-11-06T17:34:26.313Z,4.50
2022-11-06T17:36:52.883Z,3.67
2022-11-06T17:39:19.456Z,3.27
2022-11-06T17:41:45.842Z,3.47
2022-11-06T17:44:13.082Z,3.80
2022-11-06T17:46:45.458Z,3.80
2022-11-06T17:49:18.162Z,6.10
2022-11-06T17:51:59.699Z,4.90
2022-11-06T17:54:30.322Z,6.47
2022-11-06T17:56:56.928Z,4.83
2022-11-06T17:59:26.594Z,8.43
2022-11-06T18:01:54.946Z,8.10
2022-11-06T18:04:23.513Z,3.50
2022-11-06T18:06:52.162Z,5.07
2022-11-06T18:09:19.980Z,8.30
2022-11-06T18:11:49.253Z,5.80
2022-11-06T18:14:16.113Z,5.30
2022-11-06T18:16:44.015Z,8.37
2022-11-06T18:19:16.884Z,5.07
2022-11-06T18:21:43.452Z,6.73
2022-11-06T18:24:09.872Z,8.30
2022-11-06T18:26:37.400Z,9.13
2022-11-06T18:29:05.501Z,6.93
2022-11-06T18:31:32.084Z,5.97
2022-11-06T18:33:58.506Z,8.00
2022-11-06T18:36:24.986Z,8.87
2022-11-06T18:38:51.468Z,8.80
2022-11-06T18:41:20.788Z,10.10
2022-11-06T18:43:47.343Z,8.50
2022-11-06T18:46:16.196Z,6.60
2022-11-06T18:48:44.520Z,7.97
2022-11-06T18:51:32.381Z,5.97
2022-11-06T18:54:02.337Z,7.67
2022-11-06T18:56:29.834Z,5.47
2022-11-06T18:58:56.643Z,10.17
2022-11-06T19:01:23.483Z,7.70
2022-11-06T19:03:50.257Z,9.50
2022-11-06T19:06:19.077Z,6.77
2022-11-06T19:08:45.524Z,6.23
2022-11-06T19:11:15.262Z,9.70
2022-11-06T19:13:47.565Z,5.73
2022-11-06T19:16:15.395Z,6.83
2022-11-06T19:18:41.978Z,4.50
2022-11-06T19:21:10.878Z,6.03
2022-11-06T19:23:39.141Z,6.73
2022-11-06T19:28:58.464Z,5.63
2022-11-06T19:31:29.156Z,10.03
2022-11-06T19:33:56.909Z,7.13
2022-11-06T19:36:25.037Z,8.63
2022-11-06T19:38:51.669Z,5.17
2022-11-06T19:41:18.178Z,6.63
2022-11-06T19:43:44.568Z,8.27
2022-11-06T19:46:11.101Z,8.60
2022-11-06T19:48:37.524Z,7.50
2022-11-06T19:51:08.883Z,5.83
2022-11-06T19:53:35.296Z,9.47
2022-11-06T19:56:09.297Z,7.60
2022-11-06T19:58:36.646Z,5.83
2022-11-06T20:01:07.937Z,8.60
2022-11-06T20:03:34.870Z,9.13
2022-11-06T20:06:06.453Z,6.50
2022-11-06T20:08:34.383Z,5.23
2022-11-06T20:11:07.407Z,9.97
2022-11-06T20:13:36.461Z,6.73
2022-11-06T20:16:04.499Z,5.30
2022-11-06T20:18:31.675Z,7.77
2022-11-06T20:21:06.907Z,12.03
2022-11-06T20:23:34.086Z,6.37
2022-11-06T20:26:00.728Z,7.50
2022-11-06T20:28:27.391Z,8.53
2022-11-06T20:30:54.277Z,5.97
2022-11-06T20:33:20.765Z,7.10
2022-11-06T20:35:47.215Z,5.47
2022-11-06T20:38:14.611Z,10.07
2022-11-06T20:40:43.773Z,7.90
2022-11-06T20:43:10.333Z,6.73
2022-11-06T20:45:37.471Z,7.80
2022-11-06T20:48:05.777Z,6.40
2022-11-06T20:50:32.260Z,7.67
2022-11-06T20:52:58.820Z,5.77
2022-11-06T20:55:25.363Z,8.60
2022-11-06T20:57:52.037Z,5.80
2022-11-06T21:00:18.845Z,6.73
2022-11-06T21:02:46.490Z,4.87
2022-11-06T21:05:14.950Z,6.23
2022-11-06T21:07:41.913Z,6.20
2022-11-06T21:10:09.969Z,9.33
2022-11-06T21:12:36.351Z,6.90
2022-11-06T21:15:03.013Z,6.17
2022-11-06T21:17:29.474Z,7.67
2022-11-06T21:19:55.842Z,4.70
2022-11-06T21:22:22.208Z,5.07
2022-11-06T21:24:49.069Z,4.50
2022-11-06T21:27:15.487Z,8.37
2022-11-06T21:29:42.027Z,7.20
2022-11-06T21:32:08.419Z,7.90
2022-11-06T21:34:34.952Z,6.20
2022-11-06T21:37:03.050Z,6.13
2022-11-06T21:39:34.578Z,5.37
2022-11-06T21:42:02.630Z,10.13
2022-11-06T21:44:29.026Z,4.63
2022-11-06T21:46:55.411Z,6.60
2022-11-06T21:49:21.784Z,7.47
2022-11-06T21:51:48.161Z,3.47
2022-11-06T21:54:33.310Z,3.33
2022-11-06T21:56:59.733Z,3.57
2022-11-06T21:59:28.344Z,4.33
2022-11-06T22:01:55.050Z,6.40
2022-11-06T22:04:21.629Z,7.33
2022-11-06T22:06:48.029Z,5.40
2022-11-06T22:09:24.424Z,6.30
2022-11-06T22:11:51.905Z,3.67
2022-11-06T22:14:18.424Z,6.80
2022-11-06T22:16:46.725Z,3.83
2022-11-06T22:19:14.597Z,6.60
2022-11-06T22:21:41.665Z,8.33
2022-11-06T22:24:10.556Z,9.27
2022-11-06T22:26:37.783Z,7.57
2022-11-06T22:29:08.576Z,11.30
2022-11-06T22:31:35.533Z,8.20
2022-11-06T22:34:02.299Z,5.90
2022-11-06T22:36:28.746Z,8.07
2022-11-06T22:38:55.531Z,5.20
2022-11-06T22:41:24.239Z,8.33
2022-11-06T22:43:51.892Z,10.03
2022-11-06T22:46:23.460Z,8.87
2022-11-06T22:48:51.365Z,4.80
2022-11-06T22:51:21.257Z,7.00
2022-11-06T22:53:48.138Z,6.77
2022-11-06T22:56:14.547Z,8.27
2022-11-06T22:58:42.637Z,13.83
2022-11-06T23:01:09.807Z,5.47
2022-11-06T23:03:36.644Z,4.43
2022-11-06T23:06:05.737Z,7.33
2022-11-06T23:08:32.291Z,7.33
2022-11-06T23:10:59.368Z,5.17
2022-11-06T23:13:25.873Z,6.63
2022-11-06T23:16:03.637Z,9.00
2022-11-06T23:18:30.061Z,7.50
2022-11-06T23:20:56.634Z,4.30
2022-11-06T23:23:23.409Z,10.27
2022-11-06T23:25:49.797Z,5.50
2022-11-06T23:28:16.357Z,2.97
2022-11-06T23:30:42.940Z,5.63
2022-11-06T23:33:09.394Z,12.73
2022-11-06T23:35:35.985Z,7.50
2022-11-06T23:38:02.423Z,11.40
2022-11-06T23:40:28.853Z,7.83
2022-11-06T23:42:57.148Z,4.87
2022-11-06T23:45:42.204Z,6.87
2022-11-06T23:48:15.898Z,6.60
2022-11-06T23:50:47.089Z,9.33
2022-11-06T23:53:15.443Z,7.60
2022-11-06T23:55:42.317Z,5.20
2022-11-06T23:58:09.020Z,9.23
